Overview Statistics Trail Chart Weather Telemetry Raw packets
 

This is the latest recevied weather packets stored in our database for station/object W5MAI. If no packets are shown the sender has not sent any weather packets the latest 10 day(s).

<< 17 18 19 20 21 22 23 >>
Time Temp. Humidity Pressure Rain* Wind** Luminosity Snow
1788361462 29.44° C 73% 1017.9 hPa 0 mm - 501 W/m² -
1788360806 28.89° C 75% 1018.1 hPa 0 mm - 461 W/m² -
1788360217 28.33° C 77% 1018 hPa 0 mm - 431 W/m² -
1788359623 28.33° C 78% 1018 hPa 0 mm - 390 W/m² -
1788359052 27.78° C 81% 1018.1 hPa 0 mm - 360 W/m² -
1788358459 27.22° C 83% 1018 hPa 0 mm - 309 W/m² -
1788357225 26.67° C 85% 1018 hPa 0 mm - 207 W/m² -
1788356660 26.11° C 86% 1018 hPa 0 mm - 176 W/m² -
1788356010 25.56° C 86% 1018 hPa 0 mm - 155 W/m² -
1788354824 23.33° C 90% 1017.8 hPa 0 mm - 86 W/m² -
1788354245 22.22° C 91% 1017.7 hPa 0 mm - 62 W/m² -
1788353604 21.67° C 92% 1017.6 hPa 0 mm - 40 W/m² -
1788352427 21.11° C 91% 1017.3 hPa 0 mm - 12 W/m² -
1788351852 21.11° C 91% 1017.4 hPa 0 mm - 5 W/m² -
1788351204 21.11° C 90% 1017.2 hPa 0 mm - 0 W/m² -
1788350637 21.11° C 90% 1017.3 hPa 0 mm - 0 W/m² -
1788350057 21.67° C 90% 1017.2 hPa 0 mm - 0 W/m² -
1788348232 21.67° C 89% 1017.1 hPa 0 mm - 0 W/m² -
1788347656 21.67° C 89% 1017.1 hPa 0 mm - 0 W/m² -
1788347018 21.67° C 89% 1017.2 hPa 0 mm - 0 W/m² -
1788346437 22.22° C 89% 1017 hPa 0 mm - 0 W/m² -
1788345806 22.22° C 89% 1017 hPa 0 mm - 0 W/m² -
1788345227 22.22° C 88% 1016.9 hPa 0 mm - 0 W/m² -
1788344660 22.22° C 88% 1017.1 hPa 0 mm - 0 W/m² -
1788343417 22.78° C 88% 1017.1 hPa 0 mm - 0 W/m² -

* Rain latest hour (hover to see other rain measurements)
** Current wind speed in m/s (hover to see current wind gust speed)